sensor_id;sensor_type;location;lat;lon;timestamp;P1;durP1;ratioP1;P2;durP2;ratioP2
9783;SDS011;4931;44.874;-1.092;2022-08-01T00:02:02;14.93;;;7.93;;
9783;SDS011;4931;44.874;-1.092;2022-08-01T00:06:49;13.10;;;8.05;;
9783;SDS011;4931;44.874;-1.092;2022-08-01T00:11:37;13.05;;;7.78;;
9783;SDS011;4931;44.874;-1.092;2022-08-01T00:16:23;12.32;;;7.57;;
9783;SDS011;4931;44.874;-1.092;2022-08-01T00:21:10;11.70;;;7.80;;
9783;SDS011;4931;44.874;-1.092;2022-08-01T00:25:58;15.98;;;7.78;;
9783;SDS011;4931;44.874;-1.092;2022-08-01T00:30:47;13.15;;;7.40;;
9783;SDS011;4931;44.874;-1.092;2022-08-01T00:35:34;14.10;;;7.07;;
9783;SDS011;4931;44.874;-1.092;2022-08-01T00:40:21;17.13;;;6.80;;
9783;SDS011;4931;44.874;-1.092;2022-08-01T00:45:07;14.20;;;6.97;;
9783;SDS011;4931;44.874;-1.092;2022-08-01T00:49:57;16.10;;;7.55;;
9783;SDS011;4931;44.874;-1.092;2022-08-01T00:54:43;14.52;;;6.95;;
9783;SDS011;4931;44.874;-1.092;2022-08-01T00:59:29;14.07;;;6.80;;
9783;SDS011;4931;44.874;-1.092;2022-08-01T01:04:15;11.90;;;6.28;;
9783;SDS011;4931;44.874;-1.092;2022-08-01T01:09:06;16.75;;;7.03;;
9783;SDS011;4931;44.874;-1.092;2022-08-01T01:14:01;12.52;;;6.97;;
9783;SDS011;4931;44.874;-1.092;2022-08-01T01:18:54;11.55;;;6.03;;
9783;SDS011;4931;44.874;-1.092;2022-08-01T01:23:50;12.60;;;7.00;;
9783;SDS011;4931;44.874;-1.092;2022-08-01T01:28:58;10.77;;;6.85;;
9783;SDS011;4931;44.874;-1.092;2022-08-01T01:33:46;11.20;;;6.53;;
9783;SDS011;4931;44.874;-1.092;2022-08-01T01:38:36;10.82;;;7.38;;
9783;SDS011;4931;44.874;-1.092;2022-08-01T01:43:26;12.40;;;6.38;;
9783;SDS011;4931;44.874;-1.092;2022-08-01T01:48:18;11.13;;;6.13;;
9783;SDS011;4931;44.874;-1.092;2022-08-01T01:53:05;8.82;;;6.15;;
9783;SDS011;4931;44.874;-1.092;2022-08-01T01:57:56;11.85;;;6.50;;
9783;SDS011;4931;44.874;-1.092;2022-08-01T02:02:44;9.20;;;6.68;;
9783;SDS011;4931;44.874;-1.092;2022-08-01T02:07:35;13.05;;;6.88;;
9783;SDS011;4931;44.874;-1.092;2022-08-01T02:12:22;12.40;;;6.40;;
9783;SDS011;4931;44.874;-1.092;2022-08-01T02:17:10;10.30;;;5.95;;
9783;SDS011;4931;44.874;-1.092;2022-08-01T02:22:00;12.15;;;6.28;;
9783;SDS011;4931;44.874;-1.092;2022-08-01T02:26:52;9.05;;;5.70;;
9783;SDS011;4931;44.874;-1.092;2022-08-01T02:31:41;11.18;;;6.05;;
9783;SDS011;4931;44.874;-1.092;2022-08-01T02:36:30;9.20;;;5.90;;
9783;SDS011;4931;44.874;-1.092;2022-08-01T02:41:19;11.27;;;6.13;;
9783;SDS011;4931;44.874;-1.092;2022-08-01T02:46:11;9.10;;;5.88;;
9783;SDS011;4931;44.874;-1.092;2022-08-01T02:51:01;15.77;;;6.03;;
9783;SDS011;4931;44.874;-1.092;2022-08-01T02:55:48;10.43;;;6.07;;
9783;SDS011;4931;44.874;-1.092;2022-08-01T03:00:34;12.13;;;5.93;;
9783;SDS011;4931;44.874;-1.092;2022-08-01T03:05:24;9.73;;;6.13;;
9783;SDS011;4931;44.874;-1.092;2022-08-01T03:10:10;8.48;;;5.18;;
9783;SDS011;4931;44.874;-1.092;2022-08-01T03:14:58;11.05;;;5.63;;
9783;SDS011;4931;44.874;-1.092;2022-08-01T03:19:45;9.20;;;5.85;;
9783;SDS011;4931;44.874;-1.092;2022-08-01T03:24:35;10.02;;;6.03;;
9783;SDS011;4931;44.874;-1.092;2022-08-01T03:29:23;9.82;;;5.82;;
9783;SDS011;4931;44.874;-1.092;2022-08-01T03:34:12;10.68;;;6.18;;
9783;SDS011;4931;44.874;-1.092;2022-08-01T03:38:58;9.77;;;5.82;;
9783;SDS011;4931;44.874;-1.092;2022-08-01T03:43:51;11.57;;;6.35;;
9783;SDS011;4931;44.874;-1.092;2022-08-01T03:48:40;12.30;;;6.50;;
9783;SDS011;4931;44.874;-1.092;2022-08-01T03:53:31;11.73;;;6.30;;
9783;SDS011;4931;44.874;-1.092;2022-08-01T03:58:21;12.05;;;6.60;;
9783;SDS011;4931;44.874;-1.092;2022-08-01T04:03:10;16.80;;;7.80;;
9783;SDS011;4931;44.874;-1.092;2022-08-01T04:07:56;15.65;;;7.22;;
9783;SDS011;4931;44.874;-1.092;2022-08-01T04:12:44;13.70;;;7.30;;
9783;SDS011;4931;44.874;-1.092;2022-08-01T04:17:29;16.17;;;7.75;;
9783;SDS011;4931;44.874;-1.092;2022-08-01T04:22:17;19.13;;;7.75;;
9783;SDS011;4931;44.874;-1.092;2022-08-01T04:27:04;16.35;;;8.15;;
9783;SDS011;4931;44.874;-1.092;2022-08-01T04:31:52;19.95;;;8.02;;
9783;SDS011;4931;44.874;-1.092;2022-08-01T04:36:41;22.27;;;9.90;;
9783;SDS011;4931;44.874;-1.092;2022-08-01T04:41:31;24.17;;;10.18;;
9783;SDS011;4931;44.874;-1.092;2022-08-01T04:46:18;21.13;;;10.45;;
9783;SDS011;4931;44.874;-1.092;2022-08-01T04:51:04;18.85;;;9.63;;
9783;SDS011;4931;44.874;-1.092;2022-08-01T04:55:56;18.05;;;8.63;;
9783;SDS011;4931;44.874;-1.092;2022-08-01T05:00:45;17.35;;;7.97;;
9783;SDS011;4931;44.874;-1.092;2022-08-01T05:05:30;16.08;;;7.82;;
9783;SDS011;4931;44.874;-1.092;2022-08-01T05:10:16;17.35;;;8.13;;
9783;SDS011;4931;44.874;-1.092;2022-08-01T05:15:01;15.85;;;8.60;;
9783;SDS011;4931;44.874;-1.092;2022-08-01T05:19:58;20.13;;;9.38;;
9783;SDS011;4931;44.874;-1.092;2022-08-01T05:24:43;29.35;;;11.60;;
9783;SDS011;4931;44.874;-1.092;2022-08-01T05:29:30;29.02;;;11.07;;
9783;SDS011;4931;44.874;-1.092;2022-08-01T05:34:15;40.33;;;11.15;;
9783;SDS011;4931;44.874;-1.092;2022-08-01T05:39:04;36.40;;;12.77;;
9783;SDS011;4931;44.874;-1.092;2022-08-01T05:43:49;40.78;;;15.15;;
9783;SDS011;4931;44.874;-1.092;2022-08-01T05:48:34;27.50;;;12.18;;
9783;SDS011;4931;44.874;-1.092;2022-08-01T05:53:19;31.45;;;13.70;;
9783;SDS011;4931;44.874;-1.092;2022-08-01T05:58:07;27.50;;;13.10;;
9783;SDS011;4931;44.874;-1.092;2022-08-01T06:02:53;23.60;;;11.50;;
9783;SDS011;4931;44.874;-1.092;2022-08-01T06:07:38;29.70;;;12.52;;
9783;SDS011;4931;44.874;-1.092;2022-08-01T06:12:23;31.13;;;13.52;;
9783;SDS011;4931;44.874;-1.092;2022-08-01T06:17:18;26.85;;;11.60;;
9783;SDS011;4931;44.874;-1.092;2022-08-01T06:22:03;24.98;;;11.00;;
9783;SDS011;4931;44.874;-1.092;2022-08-01T06:26:49;21.23;;;10.02;;
9783;SDS011;4931;44.874;-1.092;2022-08-01T06:31:34;13.07;;;8.00;;
9783;SDS011;4931;44.874;-1.092;2022-08-01T06:36:22;12.73;;;7.40;;
9783;SDS011;4931;44.874;-1.092;2022-08-01T06:41:07;14.80;;;6.82;;
9783;SDS011;4931;44.874;-1.092;2022-08-01T06:45:56;13.90;;;7.30;;
9783;SDS011;4931;44.874;-1.092;2022-08-01T06:50:41;13.20;;;5.63;;
9783;SDS011;4931;44.874;-1.092;2022-08-01T06:55:29;14.93;;;6.70;;
9783;SDS011;4931;44.874;-1.092;2022-08-01T07:00:15;12.07;;;6.50;;
9783;SDS011;4931;44.874;-1.092;2022-08-01T07:05:04;14.48;;;6.03;;
9783;SDS011;4931;44.874;-1.092;2022-08-01T07:09:52;11.63;;;5.95;;
9783;SDS011;4931;44.874;-1.092;2022-08-01T07:14:40;8.48;;;5.57;;
9783;SDS011;4931;44.874;-1.092;2022-08-01T07:19:26;11.63;;;5.20;;
9783;SDS011;4931;44.874;-1.092;2022-08-01T07:24:11;11.77;;;4.90;;
9783;SDS011;4931;44.874;-1.092;2022-08-01T07:29:01;9.13;;;4.60;;
9783;SDS011;4931;44.874;-1.092;2022-08-01T07:33:50;10.25;;;4.60;;
9783;SDS011;4931;44.874;-1.092;2022-08-01T07:38:35;9.13;;;5.00;;
9783;SDS011;4931;44.874;-1.092;2022-08-01T07:43:20;10.25;;;4.40;;
9783;SDS011;4931;44.874;-1.092;2022-08-01T07:48:05;8.15;;;4.25;;
9783;SDS011;4931;44.874;-1.092;2022-08-01T07:52:54;7.32;;;4.65;;
9783;SDS011;4931;44.874;-1.092;2022-08-01T07:57:39;7.38;;;4.07;;
9783;SDS011;4931;44.874;-1.092;2022-08-01T08:02:25;7.60;;;4.13;;
9783;SDS011;4931;44.874;-1.092;2022-08-01T08:07:10;9.57;;;4.25;;
9783;SDS011;4931;44.874;-1.092;2022-08-01T08:11:58;11.40;;;4.10;;
9783;SDS011;4931;44.874;-1.092;2022-08-01T08:16:44;10.90;;;4.22;;
9783;SDS011;4931;44.874;-1.092;2022-08-01T08:21:29;7.63;;;4.18;;
9783;SDS011;4931;44.874;-1.092;2022-08-01T08:26:15;11.55;;;3.92;;
9783;SDS011;4931;44.874;-1.092;2022-08-01T08:31:03;9.38;;;4.38;;
9783;SDS011;4931;44.874;-1.092;2022-08-01T08:36:06;7.05;;;4.43;;
9783;SDS011;4931;44.874;-1.092;2022-08-01T08:40:53;8.43;;;4.50;;
9783;SDS011;4931;44.874;-1.092;2022-08-01T08:45:40;9.65;;;4.10;;
9783;SDS011;4931;44.874;-1.092;2022-08-01T08:50:43;8.77;;;4.40;;
9783;SDS011;4931;44.874;-1.092;2022-08-01T08:55:31;7.05;;;4.10;;
9783;SDS011;4931;44.874;-1.092;2022-08-01T09:00:37;6.82;;;3.95;;
9783;SDS011;4931;44.874;-1.092;2022-08-01T09:05:27;7.67;;;3.93;;
9783;SDS011;4931;44.874;-1.092;2022-08-01T09:10:22;6.68;;;3.72;;
9783;SDS011;4931;44.874;-1.092;2022-08-01T09:15:08;8.02;;;3.83;;
9783;SDS011;4931;44.874;-1.092;2022-08-01T09:19:55;9.90;;;4.05;;
9783;SDS011;4931;44.874;-1.092;2022-08-01T09:24:40;7.22;;;3.80;;
9783;SDS011;4931;44.874;-1.092;2022-08-01T09:29:30;6.38;;;4.20;;
9783;SDS011;4931;44.874;-1.092;2022-08-01T09:34:23;5.57;;;3.50;;
9783;SDS011;4931;44.874;-1.092;2022-08-01T09:39:12;7.63;;;4.07;;
9783;SDS011;4931;44.874;-1.092;2022-08-01T09:43:59;7.72;;;4.10;;
9783;SDS011;4931;44.874;-1.092;2022-08-01T09:49:00;7.80;;;3.80;;
9783;SDS011;4931;44.874;-1.092;2022-08-01T09:53:51;8.63;;;4.00;;
9783;SDS011;4931;44.874;-1.092;2022-08-01T09:58:48;6.05;;;3.95;;
9783;SDS011;4931;44.874;-1.092;2022-08-01T10:03:42;6.15;;;3.58;;
9783;SDS011;4931;44.874;-1.092;2022-08-01T10:08:31;8.38;;;3.90;;
9783;SDS011;4931;44.874;-1.092;2022-08-01T10:13:31;7.57;;;3.63;;
9783;SDS011;4931;44.874;-1.092;2022-08-01T10:18:17;10.23;;;3.85;;
9783;SDS011;4931;44.874;-1.092;2022-08-01T10:23:07;7.35;;;3.90;;
9783;SDS011;4931;44.874;-1.092;2022-08-01T10:27:57;5.88;;;3.65;;
9783;SDS011;4931;44.874;-1.092;2022-08-01T10:32:47;7.28;;;4.38;;
9783;SDS011;4931;44.874;-1.092;2022-08-01T10:37:35;7.70;;;4.50;;
9783;SDS011;4931;44.874;-1.092;2022-08-01T10:42:33;7.18;;;4.25;;
9783;SDS011;4931;44.874;-1.092;2022-08-01T10:47:23;9.38;;;4.20;;
9783;SDS011;4931;44.874;-1.092;2022-08-01T10:52:32;9.18;;;4.40;;
9783;SDS011;4931;44.874;-1.092;2022-08-01T10:57:20;8.48;;;4.30;;
9783;SDS011;4931;44.874;-1.092;2022-08-01T11:02:08;8.38;;;3.92;;
9783;SDS011;4931;44.874;-1.092;2022-08-01T11:07:02;8.88;;;4.32;;
9783;SDS011;4931;44.874;-1.092;2022-08-01T11:11:56;8.02;;;4.05;;
9783;SDS011;4931;44.874;-1.092;2022-08-01T11:16:46;6.95;;;3.97;;
9783;SDS011;4931;44.874;-1.092;2022-08-01T11:37:23;6.05;;;3.20;;
9783;SDS011;4931;44.874;-1.092;2022-08-01T11:42:20;8.00;;;3.22;;
9783;SDS011;4931;44.874;-1.092;2022-08-01T11:47:07;6.28;;;3.50;;
9783;SDS011;4931;44.874;-1.092;2022-08-01T11:52:01;6.18;;;3.05;;
9783;SDS011;4931;44.874;-1.092;2022-08-01T11:56:49;5.82;;;3.05;;
9783;SDS011;4931;44.874;-1.092;2022-08-01T12:01:38;7.82;;;3.00;;
9783;SDS011;4931;44.874;-1.092;2022-08-01T12:06:27;4.95;;;2.80;;
9783;SDS011;4931;44.874;-1.092;2022-08-01T12:11:12;5.85;;;2.70;;
9783;SDS011;4931;44.874;-1.092;2022-08-01T12:15:58;7.00;;;3.13;;
9783;SDS011;4931;44.874;-1.092;2022-08-01T12:20:59;6.65;;;3.17;;
9783;SDS011;4931;44.874;-1.092;2022-08-01T12:25:50;7.20;;;3.63;;
9783;SDS011;4931;44.874;-1.092;2022-08-01T12:30:36;6.45;;;3.92;;
9783;SDS011;4931;44.874;-1.092;2022-08-01T12:35:23;5.78;;;2.92;;
9783;SDS011;4931;44.874;-1.092;2022-08-01T12:40:13;5.60;;;3.08;;
9783;SDS011;4931;44.874;-1.092;2022-08-01T12:45:00;6.53;;;3.50;;
9783;SDS011;4931;44.874;-1.092;2022-08-01T12:49:45;5.47;;;3.55;;
9783;SDS011;4931;44.874;-1.092;2022-08-01T12:59:55;6.70;;;3.30;;
9783;SDS011;4931;44.874;-1.092;2022-08-01T13:04:52;7.95;;;3.40;;
9783;SDS011;4931;44.874;-1.092;2022-08-01T13:09:37;5.03;;;3.25;;
9783;SDS011;4931;44.874;-1.092;2022-08-01T13:14:34;6.88;;;3.42;;
9783;SDS011;4931;44.874;-1.092;2022-08-01T13:24:39;7.15;;;3.42;;
9783;SDS011;4931;44.874;-1.092;2022-08-01T13:29:31;7.45;;;3.20;;
9783;SDS011;4931;44.874;-1.092;2022-08-01T13:34:28;7.30;;;3.53;;
9783;SDS011;4931;44.874;-1.092;2022-08-01T13:39:16;4.80;;;3.25;;
9783;SDS011;4931;44.874;-1.092;2022-08-01T13:44:14;4.67;;;3.40;;
9783;SDS011;4931;44.874;-1.092;2022-08-01T13:48:59;6.03;;;3.03;;
9783;SDS011;4931;44.874;-1.092;2022-08-01T13:53:57;4.00;;;2.53;;
9783;SDS011;4931;44.874;-1.092;2022-08-01T13:58:44;4.65;;;2.08;;
9783;SDS011;4931;44.874;-1.092;2022-08-01T14:03:30;5.07;;;2.58;;
9783;SDS011;4931;44.874;-1.092;2022-08-01T14:08:15;8.25;;;2.30;;
9783;SDS011;4931;44.874;-1.092;2022-08-01T14:13:01;7.38;;;2.90;;
9783;SDS011;4931;44.874;-1.092;2022-08-01T14:17:53;4.25;;;2.90;;
9783;SDS011;4931;44.874;-1.092;2022-08-01T14:22:39;3.90;;;2.90;;
9783;SDS011;4931;44.874;-1.092;2022-08-01T14:27:24;7.55;;;3.17;;
9783;SDS011;4931;44.874;-1.092;2022-08-01T14:32:12;4.40;;;2.53;;
9783;SDS011;4931;44.874;-1.092;2022-08-01T14:37:00;6.00;;;2.90;;
9783;SDS011;4931;44.874;-1.092;2022-08-01T14:41:46;3.85;;;2.80;;
9783;SDS011;4931;44.874;-1.092;2022-08-01T14:46:31;5.47;;;2.88;;
9783;SDS011;4931;44.874;-1.092;2022-08-01T14:51:17;6.75;;;3.40;;
9783;SDS011;4931;44.874;-1.092;2022-08-01T14:56:05;4.50;;;2.63;;
9783;SDS011;4931;44.874;-1.092;2022-08-01T15:00:51;6.85;;;3.30;;
9783;SDS011;4931;44.874;-1.092;2022-08-01T15:05:39;5.05;;;3.30;;
9783;SDS011;4931;44.874;-1.092;2022-08-01T15:10:24;6.68;;;2.83;;
9783;SDS011;4931;44.874;-1.092;2022-08-01T15:15:12;3.45;;;2.80;;
9783;SDS011;4931;44.874;-1.092;2022-08-01T15:19:58;4.95;;;3.42;;
9783;SDS011;4931;44.874;-1.092;2022-08-01T15:24:49;6.32;;;3.20;;
9783;SDS011;4931;44.874;-1.092;2022-08-01T15:29:38;7.10;;;4.07;;
9783;SDS011;4931;44.874;-1.092;2022-08-01T15:34:26;6.53;;;4.20;;
9783;SDS011;4931;44.874;-1.092;2022-08-01T15:39:11;5.32;;;4.53;;
9783;SDS011;4931;44.874;-1.092;2022-08-01T15:43:57;11.50;;;5.03;;
9783;SDS011;4931;44.874;-1.092;2022-08-01T15:48:43;8.70;;;4.63;;
9783;SDS011;4931;44.874;-1.092;2022-08-01T15:53:31;10.35;;;4.80;;
9783;SDS011;4931;44.874;-1.092;2022-08-01T15:58:16;6.60;;;4.78;;
9783;SDS011;4931;44.874;-1.092;2022-08-01T16:03:01;7.32;;;4.68;;
9783;SDS011;4931;44.874;-1.092;2022-08-01T16:07:54;6.75;;;5.10;;
9783;SDS011;4931;44.874;-1.092;2022-08-01T16:12:45;7.03;;;4.63;;
9783;SDS011;4931;44.874;-1.092;2022-08-01T16:17:30;5.53;;;4.75;;
9783;SDS011;4931;44.874;-1.092;2022-08-01T16:22:21;8.17;;;4.50;;
9783;SDS011;4931;44.874;-1.092;2022-08-01T16:27:06;6.80;;;5.10;;
9783;SDS011;4931;44.874;-1.092;2022-08-01T16:31:54;9.43;;;5.03;;
9783;SDS011;4931;44.874;-1.092;2022-08-01T16:36:49;9.27;;;5.30;;
9783;SDS011;4931;44.874;-1.092;2022-08-01T16:41:36;8.98;;;5.10;;
9783;SDS011;4931;44.874;-1.092;2022-08-01T16:46:24;6.60;;;4.90;;
9783;SDS011;4931;44.874;-1.092;2022-08-01T16:51:14;10.05;;;5.35;;
9783;SDS011;4931;44.874;-1.092;2022-08-01T16:56:06;9.57;;;5.20;;
9783;SDS011;4931;44.874;-1.092;2022-08-01T17:00:52;7.00;;;4.97;;
9783;SDS011;4931;44.874;-1.092;2022-08-01T17:06:01;9.18;;;5.03;;
9783;SDS011;4931;44.874;-1.092;2022-08-01T17:10:50;7.43;;;4.70;;
9783;SDS011;4931;44.874;-1.092;2022-08-01T17:15:36;7.43;;;4.43;;
9783;SDS011;4931;44.874;-1.092;2022-08-01T17:20:22;9.70;;;4.35;;
9783;SDS011;4931;44.874;-1.092;2022-08-01T17:25:08;8.88;;;4.53;;
9783;SDS011;4931;44.874;-1.092;2022-08-01T17:29:59;9.07;;;6.68;;
9783;SDS011;4931;44.874;-1.092;2022-08-01T17:34:45;9.40;;;4.90;;
9783;SDS011;4931;44.874;-1.092;2022-08-01T17:39:34;9.57;;;5.30;;
9783;SDS011;4931;44.874;-1.092;2022-08-01T17:44:21;19.98;;;7.05;;
9783;SDS011;4931;44.874;-1.092;2022-08-01T17:49:09;8.38;;;5.22;;
9783;SDS011;4931;44.874;-1.092;2022-08-01T17:53:55;10.73;;;6.18;;
9783;SDS011;4931;44.874;-1.092;2022-08-01T17:58:40;7.80;;;5.15;;
9783;SDS011;4931;44.874;-1.092;2022-08-01T18:03:32;9.18;;;4.93;;
9783;SDS011;4931;44.874;-1.092;2022-08-01T18:08:24;12.48;;;6.25;;
9783;SDS011;4931;44.874;-1.092;2022-08-01T18:13:11;11.93;;;6.03;;
9783;SDS011;4931;44.874;-1.092;2022-08-01T18:18:01;12.45;;;5.38;;
9783;SDS011;4931;44.874;-1.092;2022-08-01T18:22:46;26.67;;;12.20;;
9783;SDS011;4931;44.874;-1.092;2022-08-01T18:27:34;12.98;;;8.55;;
9783;SDS011;4931;44.874;-1.092;2022-08-01T18:32:40;11.77;;;5.72;;
9783;SDS011;4931;44.874;-1.092;2022-08-01T18:37:25;8.85;;;4.95;;
9783;SDS011;4931;44.874;-1.092;2022-08-01T18:42:21;8.98;;;4.43;;
9783;SDS011;4931;44.874;-1.092;2022-08-01T18:47:09;11.63;;;5.20;;
9783;SDS011;4931;44.874;-1.092;2022-08-01T18:51:56;9.52;;;4.32;;
9783;SDS011;4931;44.874;-1.092;2022-08-01T18:56:42;19.38;;;4.97;;
9783;SDS011;4931;44.874;-1.092;2022-08-01T19:01:28;13.13;;;4.68;;
9783;SDS011;4931;44.874;-1.092;2022-08-01T19:06:16;13.57;;;4.68;;
9783;SDS011;4931;44.874;-1.092;2022-08-01T19:11:01;6.63;;;3.78;;
9783;SDS011;4931;44.874;-1.092;2022-08-01T19:15:46;8.70;;;4.28;;
9783;SDS011;4931;44.874;-1.092;2022-08-01T19:20:32;11.45;;;4.28;;
9783;SDS011;4931;44.874;-1.092;2022-08-01T19:25:22;8.65;;;4.72;;
9783;SDS011;4931;44.874;-1.092;2022-08-01T19:30:08;9.88;;;4.10;;
9783;SDS011;4931;44.874;-1.092;2022-08-01T19:34:55;7.30;;;4.20;;
9783;SDS011;4931;44.874;-1.092;2022-08-01T19:39:46;9.75;;;4.35;;
9783;SDS011;4931;44.874;-1.092;2022-08-01T19:44:34;7.35;;;3.78;;
9783;SDS011;4931;44.874;-1.092;2022-08-01T19:49:21;7.75;;;4.95;;
9783;SDS011;4931;44.874;-1.092;2022-08-01T19:54:08;8.02;;;4.13;;
9783;SDS011;4931;44.874;-1.092;2022-08-01T19:58:55;11.10;;;4.15;;
9783;SDS011;4931;44.874;-1.092;2022-08-01T20:03:45;17.95;;;4.88;;
9783;SDS011;4931;44.874;-1.092;2022-08-01T20:08:32;10.02;;;4.20;;
9783;SDS011;4931;44.874;-1.092;2022-08-01T20:13:18;7.57;;;4.20;;
9783;SDS011;4931;44.874;-1.092;2022-08-01T20:18:05;6.75;;;4.43;;
9783;SDS011;4931;44.874;-1.092;2022-08-01T20:22:55;8.00;;;4.57;;
9783;SDS011;4931;44.874;-1.092;2022-08-01T20:27:41;7.63;;;5.30;;
9783;SDS011;4931;44.874;-1.092;2022-08-01T20:32:30;9.30;;;4.85;;
9783;SDS011;4931;44.874;-1.092;2022-08-01T20:37:17;8.73;;;4.72;;
9783;SDS011;4931;44.874;-1.092;2022-08-01T20:42:25;18.75;;;5.47;;
9783;SDS011;4931;44.874;-1.092;2022-08-01T20:47:12;9.52;;;5.20;;
9783;SDS011;4931;44.874;-1.092;2022-08-01T20:51:58;9.85;;;5.70;;
9783;SDS011;4931;44.874;-1.092;2022-08-01T20:56:55;10.10;;;5.50;;
9783;SDS011;4931;44.874;-1.092;2022-08-01T21:06:35;12.02;;;5.75;;
9783;SDS011;4931;44.874;-1.092;2022-08-01T21:11:21;11.48;;;6.13;;
9783;SDS011;4931;44.874;-1.092;2022-08-01T21:16:11;13.55;;;6.05;;
9783;SDS011;4931;44.874;-1.092;2022-08-01T21:21:09;12.02;;;5.93;;
9783;SDS011;4931;44.874;-1.092;2022-08-01T21:25:59;13.60;;;7.13;;
9783;SDS011;4931;44.874;-1.092;2022-08-01T21:30:45;13.80;;;6.72;;
9783;SDS011;4931;44.874;-1.092;2022-08-01T21:35:36;12.70;;;6.13;;
9783;SDS011;4931;44.874;-1.092;2022-08-01T21:40:26;13.40;;;6.75;;
9783;SDS011;4931;44.874;-1.092;2022-08-01T21:45:11;15.10;;;7.18;;
9783;SDS011;4931;44.874;-1.092;2022-08-01T21:50:00;13.43;;;7.20;;
9783;SDS011;4931;44.874;-1.092;2022-08-01T21:54:53;15.90;;;7.00;;
9783;SDS011;4931;44.874;-1.092;2022-08-01T21:59:50;22.23;;;7.70;;
9783;SDS011;4931;44.874;-1.092;2022-08-01T22:04:40;16.27;;;8.30;;
9783;SDS011;4931;44.874;-1.092;2022-08-01T22:09:26;14.65;;;7.28;;
9783;SDS011;4931;44.874;-1.092;2022-08-01T22:14:13;15.88;;;7.60;;
9783;SDS011;4931;44.874;-1.092;2022-08-01T22:19:03;16.08;;;7.60;;
9783;SDS011;4931;44.874;-1.092;2022-08-01T22:24:10;17.15;;;7.85;;
9783;SDS011;4931;44.874;-1.092;2022-08-01T22:28:56;19.42;;;8.68;;
9783;SDS011;4931;44.874;-1.092;2022-08-01T22:33:44;20.52;;;9.25;;
9783;SDS011;4931;44.874;-1.092;2022-08-01T22:38:34;16.98;;;8.98;;
9783;SDS011;4931;44.874;-1.092;2022-08-01T22:43:23;15.48;;;8.50;;
9783;SDS011;4931;44.874;-1.092;2022-08-01T22:48:14;14.40;;;8.20;;
9783;SDS011;4931;44.874;-1.092;2022-08-01T22:53:08;16.80;;;8.45;;
9783;SDS011;4931;44.874;-1.092;2022-08-01T22:58:03;18.40;;;8.23;;
9783;SDS011;4931;44.874;-1.092;2022-08-01T23:02:53;16.98;;;7.93;;
9783;SDS011;4931;44.874;-1.092;2022-08-01T23:07:44;16.33;;;8.32;;
9783;SDS011;4931;44.874;-1.092;2022-08-01T23:12:33;13.52;;;8.00;;
9783;SDS011;4931;44.874;-1.092;2022-08-01T23:17:23;14.55;;;8.10;;
9783;SDS011;4931;44.874;-1.092;2022-08-01T23:22:10;15.80;;;9.05;;
9783;SDS011;4931;44.874;-1.092;2022-08-01T23:26:56;14.57;;;8.63;;
9783;SDS011;4931;44.874;-1.092;2022-08-01T23:32:26;16.48;;;8.55;;
9783;SDS011;4931;44.874;-1.092;2022-08-01T23:37:11;11.45;;;7.70;;
9783;SDS011;4931;44.874;-1.092;2022-08-01T23:41:57;10.63;;;7.30;;
9783;SDS011;4931;44.874;-1.092;2022-08-01T23:46:47;16.30;;;7.90;;
9783;SDS011;4931;44.874;-1.092;2022-08-01T23:51:35;12.05;;;7.75;;
9783;SDS011;4931;44.874;-1.092;2022-08-01T23:56:21;14.68;;;8.05;;
